Trout Creek, Montana
Current Conditions -  °F | °C
As of 5:53 AM on Thursday 23 Oct 2014 (Local Time) from KMLP Reporting Station
Moderate Rain Moderate Rain  
Wind Chill: 32°   Ceiling: 400
Heat Index: 38°   Visibility: 1mi
Dew Point: 38°   Wind: 8mph
Humidity: 100%   Direction: 180°S
Pressure: 29.86"   Gusts: 22mph
Location:  47.83°N, 115.61°W
Report Text: KMLP 231153Z AUTO 18007G19KT 140V230 1SM RA BR BKN004 OVC010 03/03 A2986 RMK AO2 RAB09 SLP062 P0007 60045 70047 T00330033 10044 20028 56005
Loading
Personal Weather Stations






























Interactive Weather Map
Tropical Storm Tracking
New forecast layout! Learn more

10-Day Weather Forecast

Advertisements
Track Severe Weather on mobile